createdAt,value
2023-03-06T00:00:54.354Z,3.60
2023-03-06T00:03:22.297Z,3.60
2023-03-06T00:05:49.372Z,3.60
2023-03-06T00:08:16.623Z,3.50
2023-03-06T00:10:43.867Z,3.60
2023-03-06T00:13:13.515Z,3.60
2023-03-06T00:15:41.080Z,3.60
2023-03-06T00:18:08.453Z,3.60
2023-03-06T00:20:36.248Z,3.60
2023-03-06T00:23:03.322Z,3.60
2023-03-06T00:25:30.436Z,3.60
2023-03-06T00:27:57.458Z,3.60
2023-03-06T00:30:25.254Z,3.60
2023-03-06T00:32:53.424Z,3.50
2023-03-06T00:35:20.468Z,3.50
2023-03-06T00:37:47.696Z,3.50
2023-03-06T00:40:17.991Z,3.50
2023-03-06T00:42:45.657Z,3.50
2023-03-06T00:45:12.920Z,3.50
2023-03-06T00:47:40.697Z,3.50
2023-03-06T00:50:08.599Z,3.50
2023-03-06T00:52:35.601Z,3.50
2023-03-06T00:55:02.533Z,3.50
2023-03-06T00:57:29.523Z,3.50
2023-03-06T00:59:57.499Z,3.60
2023-03-06T01:02:24.521Z,3.60
2023-03-06T01:04:54.528Z,3.60
2023-03-06T01:07:21.663Z,3.60
2023-03-06T01:09:48.683Z,3.60
2023-03-06T01:12:15.714Z,3.60
2023-03-06T01:14:42.758Z,3.60
2023-03-06T01:17:10.275Z,3.60
2023-03-06T01:19:37.327Z,3.60
2023-03-06T01:22:04.427Z,3.60
2023-03-06T01:24:31.854Z,3.70
2023-03-06T01:26:58.808Z,3.60
2023-03-06T01:29:26.509Z,3.60
2023-03-06T01:31:53.585Z,3.60
2023-03-06T01:34:20.691Z,3.60
2023-03-06T01:36:47.809Z,3.60
2023-03-06T01:39:14.712Z,3.60
2023-03-06T01:41:41.645Z,3.60
2023-03-06T01:44:13.616Z,3.70
2023-03-06T01:46:46.457Z,3.70
2023-03-06T01:49:16.116Z,3.70
2023-03-06T01:52:11.374Z,3.70
2023-03-06T01:54:48.381Z,3.70
2023-03-06T01:57:20.521Z,3.70
2023-03-06T01:59:53.048Z,3.70
2023-03-06T02:02:20.784Z,3.70
2023-03-06T02:04:48.689Z,3.70
2023-03-06T02:07:19.240Z,3.70
2023-03-06T02:09:46.556Z,3.70
2023-03-06T02:12:16.986Z,3.70
2023-03-06T02:14:44.376Z,3.60
2023-03-06T02:17:13.740Z,3.60
2023-03-06T02:19:55.726Z,3.60
2023-03-06T02:22:24.589Z,3.70
2023-03-06T02:25:28.163Z,3.70
2023-03-06T02:27:55.203Z,3.60
2023-03-06T02:30:25.263Z,3.70
2023-03-06T02:32:52.261Z,3.70
2023-03-06T02:35:22.910Z,3.70
2023-03-06T02:37:50.669Z,3.70
2023-03-06T02:40:20.140Z,3.70
2023-03-06T02:42:51.009Z,3.70
2023-03-06T02:45:36.909Z,3.60
2023-03-06T02:48:04.619Z,3.60
2023-03-06T02:50:33.050Z,3.40
2023-03-06T02:53:01.327Z,3.40
2023-03-06T02:55:30.949Z,3.30
2023-03-06T02:57:57.992Z,3.20
2023-03-06T03:00:25.531Z,3.30
2023-03-06T03:02:52.801Z,3.30
2023-03-06T03:05:20.260Z,3.30
2023-03-06T03:07:53.272Z,3.30
2023-03-06T03:10:20.930Z,3.20
2023-03-06T03:12:48.288Z,3.30
2023-03-06T03:15:16.243Z,3.30
2023-03-06T03:17:46.003Z,3.30
2023-03-06T03:20:17.028Z,3.30
2023-03-06T03:22:48.840Z,3.30
2023-03-06T03:25:16.052Z,3.30
2023-03-06T03:27:43.075Z,3.20
2023-03-06T03:30:11.799Z,3.20
2023-03-06T03:32:39.705Z,3.20
2023-03-06T03:35:08.230Z,3.20
2023-03-06T03:37:37.308Z,3.20
2023-03-06T03:40:06.650Z,3.20
2023-03-06T03:42:33.714Z,3.20
2023-03-06T03:45:00.763Z,3.10
2023-03-06T03:47:27.797Z,3.10
2023-03-06T03:49:54.835Z,3.10
2023-03-06T03:52:22.055Z,3.00
2023-03-06T03:54:49.252Z,2.90
2023-03-06T03:57:16.551Z,2.90
2023-03-06T03:59:48.745Z,2.80
2023-03-06T04:02:29.966Z,2.80
2023-03-06T04:05:09.086Z,2.80
2023-03-06T04:07:36.046Z,2.70
2023-03-06T04:10:04.048Z,2.70
2023-03-06T04:12:31.222Z,2.70
2023-03-06T04:14:58.347Z,2.70
2023-03-06T04:17:26.401Z,2.70
2023-03-06T04:19:54.817Z,2.60
2023-03-06T04:22:22.615Z,2.60
2023-03-06T04:24:49.960Z,2.70
2023-03-06T04:27:17.961Z,2.70
2023-03-06T04:29:45.173Z,2.70
2023-03-06T04:32:14.835Z,2.70
2023-03-06T04:34:42.247Z,2.80
2023-03-06T04:37:22.393Z,2.80
2023-03-06T04:39:52.875Z,2.80
2023-03-06T04:42:20.050Z,2.60
2023-03-06T04:44:48.154Z,2.60
2023-03-06T04:47:18.141Z,2.60
2023-03-06T04:49:48.736Z,2.60
2023-03-06T04:52:15.832Z,2.60
2023-03-06T04:54:43.128Z,2.60
2023-03-06T04:57:10.725Z,2.60
2023-03-06T04:59:39.219Z,2.60
2023-03-06T05:02:06.255Z,2.60
2023-03-06T05:04:33.226Z,2.50
2023-03-06T05:07:00.141Z,2.50
2023-03-06T05:09:27.148Z,2.50
2023-03-06T05:11:54.070Z,2.40
2023-03-06T05:14:21.044Z,2.50
2023-03-06T05:16:48.029Z,2.50
2023-03-06T05:19:15.385Z,2.40
2023-03-06T05:21:42.345Z,2.30
2023-03-06T05:24:10.017Z,2.30
2023-03-06T05:26:36.911Z,2.30
2023-03-06T05:29:03.939Z,2.40
2023-03-06T05:31:31.081Z,2.40
2023-03-06T05:33:58.945Z,2.50
2023-03-06T05:36:25.932Z,2.40
2023-03-06T05:38:53.008Z,2.40
2023-03-06T05:41:19.951Z,2.40
2023-03-06T05:43:47.533Z,2.40
2023-03-06T05:46:14.567Z,2.40
2023-03-06T05:48:41.556Z,2.40
2023-03-06T05:51:09.625Z,2.30
2023-03-06T05:53:36.529Z,2.30
2023-03-06T05:56:06.402Z,2.20
2023-03-06T05:58:34.224Z,2.20
2023-03-06T06:01:08.060Z,2.20
2023-03-06T06:03:35.657Z,2.20
2023-03-06T06:06:09.822Z,2.20
2023-03-06T06:08:37.353Z,2.10
2023-03-06T06:11:08.503Z,2.10
2023-03-06T06:13:36.289Z,2.10
2023-03-06T06:16:16.224Z,2.10
2023-03-06T06:18:43.799Z,2.10
2023-03-06T06:21:13.382Z,2.10
2023-03-06T06:23:40.652Z,2.10
2023-03-06T06:26:09.384Z,2.10
2023-03-06T06:28:36.873Z,2.20
2023-03-06T06:31:12.317Z,2.20
2023-03-06T06:33:40.503Z,2.30
2023-03-06T06:36:16.268Z,2.30
2023-03-06T06:38:43.450Z,2.40
2023-03-06T06:43:59.093Z,2.60
2023-03-06T06:47:17.902Z,2.70
2023-03-06T06:49:14.727Z,2.80
2023-03-06T06:51:41.891Z,2.90
2023-03-06T06:54:09.819Z,3.00
2023-03-06T06:56:36.736Z,3.00
2023-03-06T06:59:16.232Z,3.10
2023-03-06T07:01:44.195Z,3.20
2023-03-06T07:04:13.628Z,3.20
2023-03-06T07:06:41.275Z,3.30
2023-03-06T07:09:08.403Z,3.30
2023-03-06T07:11:37.085Z,3.30
2023-03-06T07:14:03.997Z,3.40
2023-03-06T07:16:30.883Z,3.30
2023-03-06T07:18:57.769Z,3.40
2023-03-06T07:21:24.678Z,3.40
2023-03-06T07:23:51.616Z,3.50
2023-03-06T07:26:18.523Z,3.60
2023-03-06T07:28:52.270Z,3.60
2023-03-06T07:31:26.003Z,3.80
2023-03-06T07:33:54.580Z,3.80
2023-03-06T07:36:23.149Z,3.90
2023-03-06T07:38:50.322Z,4.00
2023-03-06T07:41:21.782Z,4.10
2023-03-06T07:43:50.181Z,4.10
2023-03-06T07:46:17.818Z,4.10
2023-03-06T07:48:44.864Z,4.10
2023-03-06T07:51:21.054Z,3.90
2023-03-06T07:53:49.178Z,3.90
2023-03-06T07:56:16.323Z,3.80
2023-03-06T07:58:45.071Z,3.70
2023-03-06T08:01:17.859Z,3.80
2023-03-06T08:03:45.015Z,3.80
2023-03-06T08:06:13.387Z,3.80
2023-03-06T08:08:42.739Z,3.80
2023-03-06T08:11:11.269Z,3.80
2023-03-06T08:13:38.561Z,3.90
2023-03-06T08:16:06.672Z,4.10
2023-03-06T08:18:34.389Z,4.10
2023-03-06T08:21:02.705Z,4.20
2023-03-06T08:23:29.833Z,4.10
2023-03-06T08:26:01.414Z,4.00
2023-03-06T08:28:28.949Z,3.80
2023-03-06T08:30:57.412Z,3.70
2023-03-06T08:33:25.131Z,3.70
2023-03-06T08:35:52.908Z,3.50
2023-03-06T08:38:19.803Z,3.50
2023-03-06T08:40:46.723Z,3.60
2023-03-06T08:43:14.479Z,3.60
2023-03-06T08:45:41.460Z,3.70
2023-03-06T08:48:08.377Z,3.80
2023-03-06T08:50:35.335Z,3.80
2023-03-06T08:53:02.295Z,3.70
2023-03-06T08:55:30.146Z,3.80
2023-03-06T08:57:58.561Z,3.70
2023-03-06T09:00:25.730Z,3.70
2023-03-06T09:02:55.697Z,3.70
2023-03-06T09:05:22.692Z,3.70
2023-03-06T09:07:49.717Z,3.80
2023-03-06T09:10:19.555Z,3.70
2023-03-06T09:12:52.491Z,3.80
2023-03-06T09:15:22.208Z,3.70
2023-03-06T09:17:49.444Z,3.60
2023-03-06T09:20:17.430Z,3.50
2023-03-06T09:22:45.707Z,3.60
2023-03-06T09:25:13.934Z,3.60
2023-03-06T09:27:41.697Z,3.70
2023-03-06T09:30:09.973Z,3.60
2023-03-06T09:32:36.968Z,3.50
2023-03-06T09:35:03.995Z,3.50
2023-03-06T09:37:31.097Z,3.40
2023-03-06T09:39:58.074Z,3.40
2023-03-06T09:42:25.603Z,3.40
2023-03-06T09:45:03.800Z,3.40
2023-03-06T09:47:55.714Z,3.30
2023-03-06T09:50:38.665Z,3.30
2023-03-06T09:53:11.805Z,3.40
2023-03-06T09:55:41.086Z,3.40
2023-03-06T09:58:25.961Z,3.30
2023-03-06T10:01:17.296Z,3.40
2023-03-06T10:03:56.125Z,3.40
2023-03-06T10:06:30.189Z,3.40
2023-03-06T10:08:59.998Z,3.40
2023-03-06T10:11:32.310Z,3.40
2023-03-06T10:14:14.010Z,3.60
2023-03-06T10:16:41.274Z,3.90
2023-03-06T10:19:17.760Z,4.20
2023-03-06T10:22:06.222Z,4.20
2023-03-06T10:25:13.818Z,4.00
2023-03-06T10:28:11.950Z,3.90
2023-03-06T10:30:58.760Z,3.90
2023-03-06T10:33:51.364Z,4.20
2023-03-06T10:36:19.973Z,4.80
2023-03-06T10:38:48.707Z,7.10
2023-03-06T10:41:28.489Z,8.90
2023-03-06T10:44:01.404Z,9.30
2023-03-06T10:46:36.375Z,8.70
2023-03-06T10:49:06.306Z,7.70
2023-03-06T10:51:35.503Z,7.40
2023-03-06T10:54:24.184Z,7.30
2023-03-06T10:56:51.195Z,7.20
2023-03-06T10:59:28.320Z,7.00
2023-03-06T11:01:58.630Z,6.80
2023-03-06T11:04:30.335Z,6.60
2023-03-06T11:07:19.090Z,6.60
2023-03-06T11:09:58.010Z,7.10
2023-03-06T11:12:39.369Z,6.90
2023-03-06T11:15:32.373Z,6.50
2023-03-06T11:17:59.388Z,5.90
2023-03-06T11:20:44.665Z,5.60
2023-03-06T11:23:54.577Z,5.50
2023-03-06T11:26:51.366Z,5.20
2023-03-06T11:29:36.861Z,5.10
2023-03-06T11:32:15.061Z,5.30
2023-03-06T11:34:50.843Z,5.50
2023-03-06T11:37:32.932Z,5.40
2023-03-06T11:40:05.330Z,5.40
2023-03-06T11:42:35.972Z,5.40
2023-03-06T11:45:29.041Z,5.50
2023-03-06T11:48:20.499Z,5.40
2023-03-06T11:50:53.630Z,5.40
2023-03-06T11:53:26.425Z,5.30
2023-03-06T11:56:31.730Z,4.90
2023-03-06T11:59:36.344Z,4.70
2023-03-06T12:02:43.050Z,4.70
2023-03-06T12:05:42.384Z,4.60
2023-03-06T12:08:45.443Z,4.60
2023-03-06T12:11:24.686Z,4.40
2023-03-06T12:14:17.518Z,4.30
2023-03-06T12:17:09.749Z,4.30
2023-03-06T12:19:54.413Z,4.20
2023-03-06T12:22:24.316Z,4.20
2023-03-06T12:25:18.048Z,4.10
2023-03-06T12:27:51.950Z,4.10
2023-03-06T12:30:54.163Z,3.90
2023-03-06T12:33:25.623Z,4.00
2023-03-06T12:36:17.147Z,4.00
2023-03-06T12:39:01.265Z,4.00
2023-03-06T12:41:37.325Z,4.20
2023-03-06T12:44:19.867Z,4.20
2023-03-06T12:47:15.607Z,4.30
2023-03-06T12:49:48.563Z,4.40
2023-03-06T12:52:29.654Z,4.50
2023-03-06T12:54:59.516Z,4.50
2023-03-06T12:57:26.764Z,4.40
2023-03-06T12:59:54.919Z,4.40
2023-03-06T13:03:03.957Z,4.40
2023-03-06T13:05:37.112Z,4.30
2023-03-06T13:08:10.103Z,4.30
2023-03-06T13:10:40.794Z,4.30
2023-03-06T13:13:32.329Z,4.30
2023-03-06T13:16:10.680Z,4.30
2023-03-06T13:18:37.825Z,4.30
2023-03-06T13:21:04.883Z,4.30
2023-03-06T13:23:38.295Z,4.30
2023-03-06T13:26:10.550Z,4.30
2023-03-06T13:28:50.205Z,4.20
2023-03-06T13:31:38.402Z,4.20
2023-03-06T13:34:26.257Z,4.30
2023-03-06T13:36:53.166Z,4.40
2023-03-06T13:39:20.051Z,4.50
2023-03-06T13:41:52.415Z,4.60
2023-03-06T13:44:25.496Z,4.90
2023-03-06T13:47:19.499Z,5.30
2023-03-06T13:49:47.953Z,5.60
2023-03-06T13:52:44.601Z,6.00
2023-03-06T13:55:20.505Z,6.30
2023-03-06T13:58:11.904Z,6.20
2023-03-06T14:00:58.428Z,6.50
2023-03-06T14:03:55.254Z,6.70
2023-03-06T14:06:34.489Z,6.80
2023-03-06T14:09:07.991Z,6.80
2023-03-06T14:11:37.442Z,6.70
2023-03-06T14:14:04.405Z,6.70
2023-03-06T14:16:49.447Z,6.70
2023-03-06T14:19:18.709Z,6.90
2023-03-06T14:21:47.685Z,6.90
2023-03-06T14:24:20.256Z,6.90
2023-03-06T14:26:51.673Z,6.90
2023-03-06T14:29:21.864Z,6.80
2023-03-06T14:32:00.766Z,6.70
2023-03-06T14:34:30.415Z,6.60
2023-03-06T14:37:18.157Z,6.40
2023-03-06T14:39:46.708Z,6.20
2023-03-06T14:42:26.633Z,6.00
2023-03-06T14:45:15.895Z,5.90
2023-03-06T14:47:44.424Z,5.90
2023-03-06T14:50:26.702Z,5.90
2023-03-06T14:53:06.146Z,5.90
2023-03-06T14:55:35.581Z,5.80
2023-03-06T14:58:14.221Z,5.90
2023-03-06T15:00:45.226Z,5.90
2023-03-06T15:03:25.201Z,6.00
2023-03-06T15:05:52.849Z,6.00
2023-03-06T15:08:25.603Z,6.00
2023-03-06T15:11:04.174Z,6.10
2023-03-06T15:13:32.964Z,6.10
2023-03-06T15:16:13.597Z,6.20
2023-03-06T15:18:54.271Z,6.00
2023-03-06T15:21:22.800Z,5.90
2023-03-06T15:23:51.647Z,5.70
2023-03-06T15:26:37.748Z,5.80
2023-03-06T15:29:11.048Z,5.90
2023-03-06T15:31:42.755Z,5.90
2023-03-06T15:34:09.713Z,5.80
2023-03-06T15:36:48.984Z,5.80
2023-03-06T15:39:38.254Z,5.80
2023-03-06T15:42:20.220Z,6.00
2023-03-06T15:44:56.452Z,6.10
2023-03-06T15:47:23.937Z,6.10
2023-03-06T15:49:53.062Z,6.10
2023-03-06T15:52:21.374Z,6.20
2023-03-06T15:54:48.339Z,6.20
2023-03-06T15:57:26.794Z,6.30
2023-03-06T15:59:54.192Z,6.10
2023-03-06T16:02:22.840Z,6.10
2023-03-06T16:04:50.456Z,6.10
2023-03-06T16:07:17.535Z,6.10
2023-03-06T16:09:44.820Z,6.10
2023-03-06T16:12:17.167Z,6.10
2023-03-06T16:14:45.184Z,6.00
2023-03-06T16:17:12.811Z,6.00
2023-03-06T16:19:40.244Z,6.00
2023-03-06T16:22:07.381Z,6.00
2023-03-06T16:24:34.298Z,5.90
2023-03-06T16:27:02.620Z,5.80
2023-03-06T16:29:30.265Z,5.70
2023-03-06T16:31:58.694Z,5.60
2023-03-06T16:34:25.654Z,5.50
2023-03-06T16:36:52.878Z,5.40
2023-03-06T16:39:22.070Z,5.30
2023-03-06T16:41:51.968Z,5.20
2023-03-06T16:44:19.528Z,5.10
2023-03-06T16:46:48.812Z,5.00
2023-03-06T16:49:21.707Z,4.80
2023-03-06T16:51:49.197Z,4.70
2023-03-06T16:54:16.181Z,4.70
2023-03-06T16:56:43.292Z,4.60
2023-03-06T16:59:10.709Z,4.50
2023-03-06T17:01:37.942Z,4.40
2023-03-06T17:04:04.918Z,4.30
2023-03-06T17:06:31.881Z,4.30
2023-03-06T17:08:59.855Z,4.30
2023-03-06T17:11:27.471Z,4.20
2023-03-06T17:13:55.447Z,4.20
2023-03-06T17:16:22.482Z,4.10
2023-03-06T17:18:49.765Z,4.10
2023-03-06T17:21:17.007Z,4.00
2023-03-06T17:23:44.528Z,4.00
2023-03-06T17:26:18.844Z,4.00
2023-03-06T17:28:46.531Z,4.00
2023-03-06T17:31:18.657Z,4.00
2023-03-06T17:33:46.412Z,4.10
2023-03-06T17:36:14.581Z,4.10
2023-03-06T17:38:42.332Z,4.20
2023-03-06T17:41:10.815Z,4.40
2023-03-06T17:43:38.410Z,4.40
2023-03-06T17:46:07.073Z,4.50
2023-03-06T17:48:34.894Z,4.50
2023-03-06T17:51:02.692Z,4.50
2023-03-06T17:53:29.679Z,4.60
2023-03-06T17:55:59.649Z,4.60
2023-03-06T17:58:27.320Z,4.50
2023-03-06T18:00:54.415Z,4.40
2023-03-06T18:03:21.739Z,4.40
2023-03-06T18:05:57.872Z,4.40
2023-03-06T18:08:24.732Z,4.50
2023-03-06T18:10:51.629Z,4.50
2023-03-06T18:13:18.516Z,4.40
2023-03-06T18:15:45.425Z,4.50
2023-03-06T18:18:12.502Z,4.50
2023-03-06T18:20:42.633Z,4.50
2023-03-06T18:23:09.508Z,4.60
2023-03-06T18:25:36.395Z,4.50
2023-03-06T18:28:03.456Z,4.50
2023-03-06T18:30:30.378Z,4.60
2023-03-06T18:32:57.820Z,4.60
2023-03-06T18:35:24.805Z,4.50
2023-03-06T18:37:52.162Z,4.60
2023-03-06T18:40:19.323Z,4.60
2023-03-06T18:42:46.434Z,4.60
2023-03-06T18:45:13.389Z,4.60
2023-03-06T18:47:40.665Z,4.60
2023-03-06T18:50:08.894Z,4.50
2023-03-06T18:52:35.819Z,4.50
2023-03-06T18:55:03.646Z,4.50
2023-03-06T18:57:30.634Z,4.50
2023-03-06T18:59:57.550Z,4.50
2023-03-06T19:02:24.550Z,4.40
2023-03-06T19:04:52.839Z,4.40
2023-03-06T19:07:20.094Z,4.40
2023-03-06T19:09:49.046Z,4.30
2023-03-06T19:12:16.703Z,4.30
2023-03-06T19:14:44.324Z,4.30
2023-03-06T19:17:11.206Z,4.30
2023-03-06T19:19:38.977Z,4.30
2023-03-06T19:22:05.984Z,4.30
2023-03-06T19:24:32.872Z,4.30
2023-03-06T19:26:59.814Z,4.30
2023-03-06T19:29:26.779Z,4.30
2023-03-06T19:31:57.013Z,4.30
2023-03-06T19:34:24.181Z,4.30
2023-03-06T19:36:51.709Z,4.30
2023-03-06T19:39:18.820Z,4.20
2023-03-06T19:41:48.909Z,4.20
2023-03-06T19:44:16.471Z,4.10
2023-03-06T19:46:43.626Z,4.20
2023-03-06T19:49:18.104Z,4.10
2023-03-06T19:51:45.226Z,4.10
2023-03-06T19:54:13.301Z,4.10
2023-03-06T19:56:40.415Z,4.00
2023-03-06T19:59:07.309Z,4.10
2023-03-06T20:01:34.417Z,4.10
2023-03-06T20:04:01.795Z,4.10
2023-03-06T20:06:31.346Z,4.00
2023-03-06T20:08:58.272Z,4.00
2023-03-06T20:11:29.837Z,4.00
2023-03-06T20:13:58.765Z,4.00
2023-03-06T20:16:28.017Z,3.90
2023-03-06T20:18:58.680Z,4.00
2023-03-06T20:21:27.374Z,4.00
2023-03-06T20:23:56.971Z,4.00
2023-03-06T20:26:25.750Z,4.10
2023-03-06T20:28:52.824Z,4.00
2023-03-06T20:31:22.017Z,4.00
2023-03-06T20:33:50.939Z,4.00
2023-03-06T20:36:21.595Z,4.00
2023-03-06T20:38:49.285Z,4.00
2023-03-06T20:41:22.553Z,4.00
2023-03-06T20:43:50.907Z,3.90
2023-03-06T20:46:18.938Z,3.90
2023-03-06T20:48:49.150Z,3.90
2023-03-06T20:51:23.314Z,3.80
2023-03-06T20:53:53.038Z,3.80
2023-03-06T20:56:22.373Z,3.80
2023-03-06T20:58:50.238Z,3.80
2023-03-06T21:01:27.748Z,3.70
2023-03-06T21:03:56.881Z,3.70
2023-03-06T21:06:24.380Z,3.80
2023-03-06T21:08:51.386Z,3.70
2023-03-06T21:11:18.643Z,3.70
2023-03-06T21:13:46.055Z,3.70
2023-03-06T21:16:16.281Z,3.70
2023-03-06T21:18:43.568Z,3.70
2023-03-06T21:21:14.025Z,3.70
2023-03-06T21:23:41.059Z,3.60
2023-03-06T21:26:11.416Z,3.60
2023-03-06T21:28:39.811Z,3.60
2023-03-06T21:31:09.121Z,3.60
2023-03-06T21:33:36.727Z,3.60
2023-03-06T21:36:03.970Z,3.60
2023-03-06T21:38:31.181Z,3.60
2023-03-06T21:41:14.309Z,3.60
2023-03-06T21:43:42.666Z,3.60
2023-03-06T21:46:10.439Z,3.60
2023-03-06T21:48:37.585Z,3.50
2023-03-06T21:51:06.703Z,3.50
2023-03-06T21:53:33.754Z,3.50
2023-03-06T21:56:01.781Z,3.50
2023-03-06T21:58:29.744Z,3.50
2023-03-06T22:00:57.386Z,3.40
2023-03-06T22:03:24.765Z,3.40
2023-03-06T22:05:52.295Z,3.40
2023-03-06T22:08:28.078Z,3.40
2023-03-06T22:10:54.948Z,3.40
2023-03-06T22:13:22.993Z,3.40
2023-03-06T22:15:51.935Z,3.40
2023-03-06T22:18:19.228Z,3.30
2023-03-06T22:20:46.269Z,3.30
2023-03-06T22:23:13.375Z,3.30
2023-03-06T22:25:40.642Z,3.30
2023-03-06T22:28:07.845Z,3.30
2023-03-06T22:30:34.835Z,3.30
2023-03-06T22:33:01.863Z,3.40
2023-03-06T22:35:28.875Z,3.40
2023-03-06T22:37:56.074Z,3.30
2023-03-06T22:40:23.037Z,3.20
2023-03-06T22:42:49.981Z,3.30
2023-03-06T22:45:17.166Z,3.30
2023-03-06T22:47:44.190Z,3.30
2023-03-06T22:50:11.694Z,3.30
2023-03-06T22:52:38.690Z,3.30
2023-03-06T22:55:06.181Z,3.20
2023-03-06T22:57:33.212Z,3.20
2023-03-06T23:00:00.166Z,3.20
2023-03-06T23:02:33.051Z,3.20
2023-03-06T23:05:00.113Z,3.20
2023-03-06T23:07:27.064Z,3.20
2023-03-06T23:10:00.796Z,3.20
2023-03-06T23:12:46.656Z,3.20
2023-03-06T23:15:32.472Z,3.20
2023-03-06T23:18:17.843Z,3.20
2023-03-06T23:21:12.304Z,3.10
2023-03-06T23:23:57.589Z,3.20
2023-03-06T23:26:31.596Z,3.20
2023-03-06T23:28:58.858Z,3.20
2023-03-06T23:31:28.822Z,3.20
2023-03-06T23:34:00.792Z,3.10
2023-03-06T23:36:28.509Z,3.10
2023-03-06T23:38:55.843Z,3.10
2023-03-06T23:41:23.808Z,3.10
2023-03-06T23:43:53.460Z,3.10
2023-03-06T23:46:21.797Z,3.10
2023-03-06T23:48:48.876Z,3.10
2023-03-06T23:51:18.782Z,3.20
2023-03-06T23:53:47.343Z,3.20
2023-03-06T23:56:14.446Z,3.10
2023-03-06T23:58:41.519Z,3.10
